NZAA/AKL METAR and TAF weather

Enter ICAO airport designator
Station Type Date Time Source
NZAA METAR 2017/12/15 09:30 UTC NOAA

NZAA 150930Z AUTO 25007KT 9999 NCD 19/16 Q1019 NOSIG


Station Type Date Time Source
NZAA Decoded METAR 2017/12/15 09:30 UTC NOAA

Auckland Airport, New Zealand (NZAA) 37-01S 174-48E 6M
Dec 15, 2017 - 04:30 AM EST / 2017.12.15 0930 UTC
Wind: from the WSW (250 degrees) at 8 MPH (7 KT):0
Visibility: greater than 7 mile(s):0
Temperature: 66 F (19 C)
Dew Point: 60 F (16 C)
Relative Humidity: 82%
Pressure (altimeter): 30.09 in. Hg (1019 hPa)
ob: NZAA 150930Z AUTO 25007KT 9999 NCD 19/16 Q1019 NOSIG
cycle: 9

Station Type Date Time Source
NZAA TAF 2017/12/15 06:06 UTC NOAA

TAF TAF NZAA 150502Z 1506/1606 23010KT 9999 SCT030
BECMG 1506/1508 VRB02KT
BECMG 1520/1522 22010KT


Example: see airport list